Athens, Texas
Current Conditions -  °F | °C
As of 9:55 AM on Sunday 21 Dec 2014 (Local Time) from KF44 Reporting Station
Overcast Overcast  
Wind Chill:   Ceiling: 2200
Heat Index:   Visibility: 10mi
Dew Point:   Wind: 3mph
Humidity: 93%   Direction: 150°SSE
Pressure: 30.12"   Gusts: NA
Location:  32.2°N, 95.85°W
Report Text: KF44 211555Z AUTO 15003KT 10SM SCT008 OVC022 07/06 A3012 RMK AO2
Loading
Personal Weather Stations






























Interactive Weather Map New forecast layout! Learn more

10-Day Weather Forecast

Advertisements
Track Severe Weather on mobile